Time;durP1;ratioP1;P1;durP2;ratioP2;P2;SDS_P1;SDS_P2;PMS_P1;PMS_P2;Temp;Humidity;BMP_temperature;BMP_pressure;BME280_temperature;BME280_humidity;BME280_pressure;Samples;Min_cycle;Max_cycle;Signal;HPM_P1;HPM_P2
2022/05/30 00:01:20;;;;;;;4.10;3.30;;;;;;;;;;4956796;28;20529;-76
2022/05/30 00:03:48;;;;;;;4.20;3.80;;;;;;;;;;4963997;28;20470;-76
2022/05/30 00:06:15;;;;;;;3.40;3.10;;;;;;;;;;4951120;28;20510;-76
2022/05/30 00:08:42;;;;;;;3.93;3.63;;;;;;;;;;4974130;28;20446;-76
2022/05/30 00:11:10;;;;;;;4.17;3.80;;;;;;;;;;4956411;28;20450;-76
2022/05/30 00:13:37;;;;;;;4.27;3.87;;;;;;;;;;4964683;28;21052;-76
2022/05/30 00:16:04;;;;;;;4.00;3.63;;;;;;;;;;4955557;28;20526;-76
2022/05/30 00:18:31;;;;;;;4.60;4.20;;;;;;;;;;4974360;28;20455;-76
2022/05/30 00:20:59;;;;;;;4.40;4.00;;;;;;;;;;4956814;28;20445;-77
2022/05/30 00:23:25;;;;;;;4.97;4.13;;;;;;;;;;4972806;28;20470;-76
2022/05/30 00:25:52;;;;;;;5.40;4.87;;;;;;;;;;4969099;28;20470;-76
2022/05/30 00:28:19;;;;;;;5.10;4.60;;;;;;;;;;4961801;28;20802;-76
2022/05/30 00:30:46;;;;;;;4.93;4.43;;;;;;;;;;4973425;28;20493;-76
2022/05/30 00:33:13;;;;;;;5.57;4.90;;;;;;;;;;4941476;28;20550;-76
2022/05/30 00:35:40;;;;;;;4.43;4.03;;;;;;;;;;4958482;28;20501;-76
2022/05/30 00:38:08;;;;;;;6.07;4.97;;;;;;;;;;4956180;28;20575;-76
2022/05/30 00:40:34;;;;;;;4.87;4.37;;;;;;;;;;4955699;28;20941;-76
2022/05/30 00:43:16;;;;;;;5.17;4.67;;;;;;;;;;4973131;28;20794;-76
2022/05/30 00:45:42;;;;;;;4.63;4.23;;;;;;;;;;4955574;28;20474;-76
2022/05/30 00:48:09;;;;;;;5.97;5.03;;;;;;;;;;4972833;28;20872;-76
2022/05/30 00:50:36;;;;;;;5.93;5.33;;;;;;;;;;4973202;28;20819;-76
2022/05/30 00:53:02;;;;;;;5.83;4.60;;;;;;;;;;4954222;28;20451;-76
2022/05/30 00:55:30;;;;;;;4.50;4.10;;;;;;;;;;4964914;28;20473;-76
2022/05/30 00:57:57;;;;;;;5.27;4.77;;;;;;;;;;4955500;28;21012;-76
2022/05/30 01:00:26;;;;;;;5.10;4.50;;;;;;;;;;4971435;28;20492;-76
2022/05/30 01:08:18;;;;;;;5.10;4.50;;;;;;;;;;4956204;28;20457;-76
2022/05/30 01:10:46;;;;;;;5.07;4.57;;;;;;;;;;4937604;28;20458;-77
2022/05/30 01:13:13;;;;;;;5.00;4.60;;;;;;;;;;4954624;28;20813;-76
2022/05/30 01:15:40;;;;;;;5.53;4.87;;;;;;;;;;4939035;28;20451;-76
2022/05/30 01:18:10;;;;;;;7.40;4.90;;;;;;;;;;4938501;28;20465;-76
2022/05/30 01:20:42;;;;;;;5.93;5.33;;;;;;;;;;4939346;28;20834;-76
2022/05/30 01:23:16;;;;;;;5.80;4.80;;;;;;;;;;4954941;28;20459;-76
2022/05/30 01:26:03;;;;;;;5.30;4.80;;;;;;;;;;4955132;28;20502;-76
2022/05/30 01:28:46;;;;;;;5.73;4.97;;;;;;;;;;4952058;28;20679;-76
2022/05/30 01:31:14;;;;;;;6.50;5.20;;;;;;;;;;4953782;28;20447;-76
2022/05/30 01:33:40;;;;;;;5.07;4.67;;;;;;;;;;4960614;28;20449;-77
2022/05/30 01:36:07;;;;;;;4.97;4.47;;;;;;;;;;4967478;28;20556;-76
2022/05/30 01:38:34;;;;;;;5.73;5.23;;;;;;;;;;4939069;28;20470;-76
2022/05/30 01:41:04;;;;;;;6.20;5.40;;;;;;;;;;4955828;28;20447;-76
2022/05/30 01:43:32;;;;;;;5.17;4.67;;;;;;;;;;4955480;28;20509;-76
2022/05/30 01:46:06;;;;;;;5.13;4.63;;;;;;;;;;4953911;28;20478;-76
2022/05/30 01:48:34;;;;;;;5.57;5.07;;;;;;;;;;4955510;28;20854;-77
2022/05/30 01:51:02;;;;;;;5.17;4.77;;;;;;;;;;4939583;28;20442;-77
2022/05/30 01:53:30;;;;;;;5.77;5.17;;;;;;;;;;4960355;28;20466;-76
2022/05/30 01:56:15;;;;;;;6.00;5.40;;;;;;;;;;4952753;28;20455;-76
2022/05/30 01:58:41;;;;;;;5.77;5.20;;;;;;;;;;4954134;28;20877;-76
2022/05/30 02:01:28;;;;;;;6.70;6.00;;;;;;;;;;4955348;28;20442;-76
2022/05/30 02:03:58;;;;;;;5.67;5.13;;;;;;;;;;4952451;28;20454;-76
2022/05/30 02:06:26;;;;;;;6.37;5.77;;;;;;;;;;4956475;28;20533;-76
2022/05/30 02:08:53;;;;;;;7.90;5.50;;;;;;;;;;4956381;28;20458;-76
2022/05/30 02:11:24;;;;;;;5.30;4.70;;;;;;;;;;4974920;28;20517;-76
2022/05/30 02:13:52;;;;;;;6.30;5.10;;;;;;;;;;4942316;28;20454;-76
2022/05/30 02:19:22;;;;;;;6.13;5.37;;;;;;;;;;4942411;28;20814;-76
2022/05/30 02:21:50;;;;;;;6.47;5.87;;;;;;;;;;4958208;28;20458;-76
2022/05/30 02:24:17;;;;;;;6.33;5.80;;;;;;;;;;4975827;28;20489;-76
2022/05/30 02:26:44;;;;;;;7.40;5.90;;;;;;;;;;4942050;28;20474;-76
2022/05/30 02:29:13;;;;;;;6.00;5.50;;;;;;;;;;4941479;28;20450;-76
2022/05/30 02:31:54;;;;;;;5.90;5.40;;;;;;;;;;4955094;29;20884;-76
2022/05/30 02:37:05;;;;;;;6.80;6.10;;;;;;;;;;4957318;28;20453;-76
2022/05/30 02:39:32;;;;;;;7.43;5.67;;;;;;;;;;4957644;28;20449;-76
2022/05/30 02:41:59;;;;;;;7.60;6.40;;;;;;;;;;4958278;28;20886;-76
2022/05/30 02:44:26;;;;;;;7.67;6.00;;;;;;;;;;4942108;28;20481;-76
2022/05/30 02:46:57;;;;;;;5.97;5.37;;;;;;;;;;4956410;28;20486;-76
2022/05/30 02:49:25;;;;;;;6.37;5.53;;;;;;;;;;4958358;28;20470;-76
2022/05/30 02:51:52;;;;;;;6.47;5.87;;;;;;;;;;4975044;28;20457;-76
2022/05/30 02:54:20;;;;;;;5.93;5.30;;;;;;;;;;4957916;28;20446;-76
2022/05/30 02:57:15;;;;;;;6.53;5.47;;;;;;;;;;4945814;29;20447;-76
2022/05/30 02:59:44;;;;;;;6.53;5.57;;;;;;;;;;4954621;29;20802;-76
2022/05/30 03:02:12;;;;;;;6.50;5.67;;;;;;;;;;4955159;28;20619;-76
2022/05/30 03:04:39;;;;;;;7.67;5.83;;;;;;;;;;4967363;28;20513;-76
2022/05/30 03:07:08;;;;;;;7.20;6.30;;;;;;;;;;4939593;28;20482;-76
2022/05/30 03:09:34;;;;;;;7.03;6.20;;;;;;;;;;4949809;29;20443;-76
2022/05/30 03:12:24;;;;;;;6.73;5.50;;;;;;;;;;4954968;28;20565;-76
2022/05/30 03:14:51;;;;;;;7.00;6.30;;;;;;;;;;4956319;28;20490;-76
2022/05/30 03:17:19;;;;;;;6.43;5.73;;;;;;;;;;4940686;28;20453;-76
2022/05/30 03:19:56;;;;;;;9.50;7.50;;;;;;;;;;4941926;28;20549;-75
2022/05/30 03:22:26;;;;;;;7.90;6.40;;;;;;;;;;4956287;28;20449;-75
2022/05/30 03:25:18;;;;;;;6.90;6.03;;;;;;;;;;4968422;28;21105;-76
2022/05/30 03:27:45;;;;;;;7.20;6.50;;;;;;;;;;4957033;28;20494;-76
2022/05/30 03:30:12;;;;;;;14.30;7.03;;;;;;;;;;4956759;28;20461;-76
2022/05/30 03:32:41;;;;;;;7.27;6.53;;;;;;;;;;4939332;28;20454;-76
2022/05/30 03:35:08;;;;;;;8.20;6.13;;;;;;;;;;4964293;28;20493;-76
2022/05/30 03:37:39;;;;;;;7.70;7.00;;;;;;;;;;4956673;28;20466;-76
2022/05/30 03:40:25;;;;;;;8.87;6.87;;;;;;;;;;4956631;28;20928;-76
2022/05/30 03:43:21;;;;;;;7.07;6.37;;;;;;;;;;4954787;28;20470;-75
2022/05/30 03:45:47;;;;;;;7.07;6.37;;;;;;;;;;4974670;28;20517;-76
2022/05/30 03:48:16;;;;;;;8.23;6.63;;;;;;;;;;4957187;28;20972;-76
2022/05/30 03:50:43;;;;;;;7.27;6.47;;;;;;;;;;4956110;28;20857;-76
2022/05/30 03:53:10;;;;;;;7.20;6.50;;;;;;;;;;4958332;28;20466;-76
2022/05/30 03:55:40;;;;;;;7.37;6.67;;;;;;;;;;4956078;28;20505;-76
2022/05/30 03:58:09;;;;;;;9.60;7.37;;;;;;;;;;4956569;28;20529;-75
2022/05/30 04:00:36;;;;;;;8.47;6.80;;;;;;;;;;4972251;28;20446;-74
2022/05/30 04:03:04;;;;;;;9.33;7.33;;;;;;;;;;4954181;28;20941;-75
2022/05/30 04:05:33;;;;;;;8.57;7.77;;;;;;;;;;4955939;28;20541;-74
2022/05/30 04:08:00;;;;;;;9.03;8.10;;;;;;;;;;4940391;28;20521;-74
2022/05/30 04:10:52;;;;;;;7.90;7.13;;;;;;;;;;4925542;28;20845;-74
2022/05/30 04:13:50;;;;;;;13.30;8.03;;;;;;;;;;4972105;28;20450;-74
2022/05/30 04:16:35;;;;;;;9.37;8.03;;;;;;;;;;4955208;28;20493;-74
2022/05/30 04:19:07;;;;;;;8.60;7.80;;;;;;;;;;4939762;28;20993;-74
2022/05/30 04:21:36;;;;;;;10.73;8.50;;;;;;;;;;4955502;28;20466;-75
2022/05/30 04:24:04;;;;;;;8.83;7.93;;;;;;;;;;4972444;28;20474;-76
2022/05/30 04:26:41;;;;;;;9.70;8.70;;;;;;;;;;4970591;28;20843;-76
2022/05/30 04:29:08;;;;;;;9.23;7.17;;;;;;;;;;4939656;28;20513;-76
2022/05/30 04:31:45;;;;;;;9.30;8.40;;;;;;;;;;4952226;29;20439;-76
2022/05/30 04:34:13;;;;;;;8.00;7.30;;;;;;;;;;4941670;28;20441;-76
2022/05/30 04:36:41;;;;;;;8.07;7.30;;;;;;;;;;4939172;28;20441;-75
2022/05/30 04:39:08;;;;;;;8.63;7.73;;;;;;;;;;4939498;28;20916;-76
2022/05/30 04:41:53;;;;;;;8.40;7.10;;;;;;;;;;4969146;28;20458;-78
2022/05/30 04:44:37;;;;;;;6.90;6.30;;;;;;;;;;4963152;28;20973;-78
2022/05/30 04:47:24;;;;;;;5.83;5.27;;;;;;;;;;4938862;29;20475;-78
2022/05/30 04:49:51;;;;;;;6.50;5.80;;;;;;;;;;4931893;28;20455;-78
2022/05/30 04:52:20;;;;;;;7.40;6.20;;;;;;;;;;4938420;28;20446;-78
2022/05/30 04:54:47;;;;;;;8.77;6.67;;;;;;;;;;4938541;28;20501;-78
2022/05/30 04:57:40;;;;;;;5.70;5.20;;;;;;;;;;4969963;28;20525;-78
2022/05/30 05:00:35;;;;;;;5.10;4.40;;;;;;;;;;4956759;28;20469;-78
2022/05/30 05:03:02;;;;;;;4.90;4.43;;;;;;;;;;4954738;28;20513;-78
2022/05/30 05:05:29;;;;;;;4.90;4.50;;;;;;;;;;4955278;28;20876;-78
2022/05/30 05:08:00;;;;;;;4.50;4.10;;;;;;;;;;4940377;28;20469;-78
2022/05/30 05:10:33;;;;;;;4.90;4.50;;;;;;;;;;4940362;28;20566;-78
2022/05/30 05:13:24;;;;;;;4.23;3.83;;;;;;;;;;4919816;29;20522;-76
2022/05/30 05:16:09;;;;;;;4.60;4.20;;;;;;;;;;4936156;29;20431;-75
2022/05/30 05:18:38;;;;;;;4.97;4.57;;;;;;;;;;4961929;28;20466;-76
2022/05/30 05:21:04;;;;;;;11.93;5.23;;;;;;;;;;4972856;28;20529;-77
2022/05/30 05:23:32;;;;;;;5.10;4.60;;;;;;;;;;4955413;28;20454;-77
2022/05/30 05:26:07;;;;;;;5.40;4.90;;;;;;;;;;4954602;28;20474;-78
2022/05/30 05:28:45;;;;;;;5.73;5.13;;;;;;;;;;4963250;28;20476;-73
2022/05/30 05:31:14;;;;;;;5.20;4.67;;;;;;;;;;4948433;29;20454;-74
2022/05/30 05:33:41;;;;;;;5.63;5.00;;;;;;;;;;4959094;28;20458;-76
2022/05/30 05:36:07;;;;;;;5.50;5.00;;;;;;;;;;4971794;28;20427;-76
2022/05/30 05:38:35;;;;;;;6.87;5.30;;;;;;;;;;4951925;28;20493;-76
2022/05/30 05:41:16;;;;;;;6.70;6.10;;;;;;;;;;4955845;28;20497;-76
2022/05/30 05:44:01;;;;;;;8.37;7.00;;;;;;;;;;4976125;28;20418;-78
2022/05/30 05:46:30;;;;;;;6.60;5.90;;;;;;;;;;4955916;28;20779;-76
2022/05/30 05:48:57;;;;;;;7.60;4.97;;;;;;;;;;4955882;28;20450;-76
2022/05/30 05:51:24;;;;;;;5.60;5.10;;;;;;;;;;4966750;28;20806;-75
2022/05/30 05:53:53;;;;;;;5.33;4.57;;;;;;;;;;4957668;28;20465;-76
2022/05/30 05:56:21;;;;;;;5.60;4.80;;;;;;;;;;4938110;28;20522;-76
2022/05/30 05:58:47;;;;;;;5.03;4.63;;;;;;;;;;4939703;28;20462;-76
2022/05/30 06:01:17;;;;;;;6.00;4.80;;;;;;;;;;4940231;28;20528;-76
2022/05/30 06:03:44;;;;;;;5.90;5.30;;;;;;;;;;4955687;28;20536;-76
2022/05/30 06:06:29;;;;;;;5.67;5.27;;;;;;;;;;4933386;29;20554;-76
2022/05/30 06:09:03;;;;;;;7.17;5.60;;;;;;;;;;4929759;29;20452;-78
2022/05/30 06:11:39;;;;;;;5.40;4.50;;;;;;;;;;4923609;29;20451;-76
2022/05/30 06:14:06;;;;;;;4.77;4.37;;;;;;;;;;4927874;29;20511;-76
2022/05/30 06:16:36;;;;;;;4.80;4.33;;;;;;;;;;4908893;29;20464;-76
2022/05/30 06:19:03;;;;;;;5.40;4.90;;;;;;;;;;4905890;29;20449;-78
2022/05/30 06:21:31;;;;;;;4.93;4.43;;;;;;;;;;4946376;28;20487;-78
2022/05/30 06:23:59;;;;;;;5.70;5.20;;;;;;;;;;4927527;29;20828;-78
2022/05/30 06:26:46;;;;;;;5.30;4.80;;;;;;;;;;4942979;29;20487;-78
2022/05/30 06:29:30;;;;;;;5.40;4.90;;;;;;;;;;4915792;29;20805;-78
2022/05/30 06:32:10;;;;;;;5.80;4.87;;;;;;;;;;4941490;29;20549;-78
2022/05/30 06:34:55;;;;;;;4.67;4.27;;;;;;;;;;4950626;29;20420;-78
2022/05/30 06:37:23;;;;;;;5.50;5.00;;;;;;;;;;4931311;29;20489;-78
2022/05/30 06:39:51;;;;;;;6.07;5.03;;;;;;;;;;4922137;29;20443;-78
2022/05/30 06:42:29;;;;;;;5.40;4.90;;;;;;;;;;4917329;29;20463;-78
2022/05/30 06:45:25;;;;;;;7.93;4.93;;;;;;;;;;4919208;29;20442;-76
2022/05/30 06:48:13;;;;;;;5.47;4.97;;;;;;;;;;4934209;29;20480;-78
2022/05/30 06:51:02;;;;;;;5.20;4.73;;;;;;;;;;4919869;29;20456;-78
2022/05/30 06:53:29;;;;;;;4.97;4.57;;;;;;;;;;4941535;28;21129;-78
2022/05/30 06:55:57;;;;;;;7.00;5.67;;;;;;;;;;4917345;29;20456;-78
2022/05/30 06:58:27;;;;;;;6.20;5.27;;;;;;;;;;4934711;29;20563;-78
2022/05/30 07:00:59;;;;;;;5.73;5.13;;;;;;;;;;4933179;29;20836;-78
2022/05/30 07:03:35;;;;;;;5.90;5.30;;;;;;;;;;4920861;29;20479;-78
2022/05/30 07:06:22;;;;;;;5.47;4.80;;;;;;;;;;4925975;29;20449;-78
2022/05/30 07:09:18;;;;;;;5.83;4.87;;;;;;;;;;4918037;29;20459;-78
2022/05/30 07:12:10;;;;;;;4.43;4.03;;;;;;;;;;4928204;29;20448;-78
2022/05/30 07:14:38;;;;;;;4.53;4.13;;;;;;;;;;4934895;29;20445;-78
2022/05/30 07:17:06;;;;;;;5.10;4.60;;;;;;;;;;4919619;29;20516;-78
2022/05/30 07:19:33;;;;;;;5.07;4.03;;;;;;;;;;4914495;29;20500;-78
2022/05/30 07:22:04;;;;;;;4.00;3.70;;;;;;;;;;4930963;29;20460;-78
2022/05/30 07:24:49;;;;;;;4.37;3.50;;;;;;;;;;4948405;29;20452;-78
2022/05/30 07:27:42;;;;;;;5.20;4.20;;;;;;;;;;4923922;29;20872;-78
2022/05/30 07:30:28;;;;;;;5.03;4.40;;;;;;;;;;4929830;29;20460;-78
2022/05/30 07:33:13;;;;;;;4.50;4.10;;;;;;;;;;4932012;29;20455;-78
2022/05/30 07:35:58;;;;;;;10.33;4.63;;;;;;;;;;4947584;29;20531;-79
2022/05/30 07:38:44;;;;;;;4.83;4.43;;;;;;;;;;4929823;29;20500;-79
2022/05/30 07:41:30;;;;;;;4.33;3.93;;;;;;;;;;4950204;29;20829;-79
2022/05/30 07:44:06;;;;;;;5.00;4.50;;;;;;;;;;4912202;29;20452;-79
2022/05/30 07:46:47;;;;;;;5.07;4.60;;;;;;;;;;4931718;29;20508;-79
2022/05/30 07:49:30;;;;;;;4.50;4.10;;;;;;;;;;4918657;29;20875;-79
2022/05/30 07:52:17;;;;;;;5.63;4.90;;;;;;;;;;4922694;29;20813;-79
2022/05/30 07:55:02;;;;;;;4.60;4.00;;;;;;;;;;4931408;29;20520;-79
2022/05/30 07:57:51;;;;;;;5.07;4.63;;;;;;;;;;4940438;29;20544;-79
2022/05/30 08:00:19;;;;;;;5.03;4.00;;;;;;;;;;4946122;29;20436;-79
2022/05/30 08:02:53;;;;;;;5.40;4.60;;;;;;;;;;4932837;28;20693;-79
2022/05/30 08:05:25;;;;;;;5.70;4.73;;;;;;;;;;4936667;28;20848;-79
2022/05/30 08:08:12;;;;;;;3.83;3.43;;;;;;;;;;4926485;29;20480;-79
2022/05/30 08:10:46;;;;;;;4.43;4.03;;;;;;;;;;4927241;29;20444;-79
2022/05/30 08:13:14;;;;;;;3.93;3.57;;;;;;;;;;4931668;29;20464;-79
2022/05/30 08:15:42;;;;;;;3.97;3.63;;;;;;;;;;4927708;29;20483;-79
2022/05/30 08:18:33;;;;;;;4.70;3.87;;;;;;;;;;4926259;29;20842;-79
2022/05/30 08:21:03;;;;;;;4.30;3.90;;;;;;;;;;4909122;29;20820;-79
2022/05/30 08:23:33;;;;;;;4.53;3.77;;;;;;;;;;4910510;29;20906;-79
2022/05/30 08:26:02;;;;;;;4.10;3.33;;;;;;;;;;4947041;29;20456;-79
2022/05/30 08:28:34;;;;;;;4.10;2.90;;;;;;;;;;4932390;29;20476;-79
2022/05/30 08:31:04;;;;;;;4.40;4.00;;;;;;;;;;4915488;29;20444;-79
2022/05/30 08:33:47;;;;;;;4.93;2.90;;;;;;;;;;4940873;29;21051;-79
2022/05/30 08:36:33;;;;;;;3.37;3.07;;;;;;;;;;4919332;29;20451;-79
2022/05/30 08:41:48;;;;;;;5.80;2.70;;;;;;;;;;4911803;29;20440;-78
2022/05/30 08:44:34;;;;;;;3.47;2.80;;;;;;;;;;4932021;29;20447;-78
2022/05/30 08:47:27;;;;;;;3.23;2.93;;;;;;;;;;4932716;29;20488;-78
2022/05/30 08:50:08;;;;;;;3.03;2.83;;;;;;;;;;4907816;29;20457;-78
2022/05/30 08:52:42;;;;;;;5.80;2.87;;;;;;;;;;4923075;29;20495;-78
2022/05/30 08:55:15;;;;;;;3.20;2.90;;;;;;;;;;4916902;29;20869;-78
2022/05/30 08:57:51;;;;;;;3.37;2.60;;;;;;;;;;4913481;29;20465;-77
2022/05/30 09:00:21;;;;;;;2.33;2.13;;;;;;;;;;4931377;29;20468;-77
2022/05/30 09:03:10;;;;;;;3.03;2.73;;;;;;;;;;4923983;29;20546;-77
2022/05/30 09:05:42;;;;;;;3.43;2.70;;;;;;;;;;4928215;29;20986;-78
2022/05/30 09:08:14;;;;;;;3.20;2.33;;;;;;;;;;4961567;28;20844;-78
2022/05/30 09:10:46;;;;;;;2.90;1.83;;;;;;;;;;4935081;29;21014;-78
2022/05/30 09:13:16;;;;;;;2.17;1.97;;;;;;;;;;4931091;29;20515;-78
2022/05/30 09:15:58;;;;;;;2.13;1.90;;;;;;;;;;4934434;29;20757;-78
2022/05/30 09:18:28;;;;;;;2.10;1.90;;;;;;;;;;4942267;29;20557;-78
2022/05/30 09:20:56;;;;;;;2.00;1.70;;;;;;;;;;4955245;29;20450;-78
2022/05/30 09:23:25;;;;;;;2.93;2.20;;;;;;;;;;4944242;29;20502;-78
2022/05/30 09:25:56;;;;;;;2.57;2.10;;;;;;;;;;4932741;29;20463;-78
2022/05/30 09:28:42;;;;;;;3.10;1.80;;;;;;;;;;4935295;29;21005;-78
2022/05/30 09:31:50;;;;;;;2.00;1.50;;;;;;;;;;4936904;29;21073;-78
2022/05/30 09:34:31;;;;;;;2.13;1.93;;;;;;;;;;4944303;28;20465;-78
2022/05/30 09:37:28;;;;;;;2.40;1.67;;;;;;;;;;4927826;29;20466;-78
2022/05/30 09:40:14;;;;;;;2.10;1.90;;;;;;;;;;4943763;28;20982;-78
2022/05/30 09:43:23;;;;;;;2.80;1.80;;;;;;;;;;4916577;29;20483;-78
2022/05/30 09:45:50;;;;;;;4.07;1.83;;;;;;;;;;4935234;29;20482;-78
2022/05/30 09:49:02;;;;;;;3.00;1.93;;;;;;;;;;4869036;29;20497;-78
2022/05/30 09:51:36;;;;;;;1.93;1.73;;;;;;;;;;4878205;29;20898;-79
2022/05/30 09:54:11;;;;;;;2.77;1.87;;;;;;;;;;4897384;29;20463;-78
2022/05/30 09:56:39;;;;;;;2.20;1.60;;;;;;;;;;4939072;29;20476;-79
2022/05/30 09:59:07;;;;;;;2.33;1.60;;;;;;;;;;4946934;28;20852;-78
2022/05/30 10:01:40;;;;;;;2.00;1.30;;;;;;;;;;4941049;29;20457;-78
2022/05/30 10:04:13;;;;;;;5.50;1.50;;;;;;;;;;4932623;28;20457;-78
2022/05/30 10:07:08;;;;;;;2.60;1.53;;;;;;;;;;4957265;28;20485;-78
2022/05/30 10:09:52;;;;;;;1.70;1.60;;;;;;;;;;4959410;28;20443;-78
2022/05/30 10:12:28;;;;;;;2.33;1.70;;;;;;;;;;4976454;28;20813;-78
2022/05/30 10:14:54;;;;;;;2.30;1.37;;;;;;;;;;4936685;28;20452;-78
2022/05/30 10:17:32;;;;;;;3.20;1.80;;;;;;;;;;4953091;28;20454;-78
2022/05/30 10:20:02;;;;;;;4.10;2.03;;;;;;;;;;4958926;28;20454;-78
2022/05/30 10:29:00;;;;;;;2.40;1.57;;;;;;;;;;4952565;28;20469;-78
2022/05/30 10:31:36;;;;;;;2.50;1.47;;;;;;;;;;4964750;28;20454;-78
2022/05/30 10:34:10;;;;;;;2.13;1.90;;;;;;;;;;4941625;28;20469;-78
2022/05/30 10:36:42;;;;;;;2.10;1.90;;;;;;;;;;4957431;28;20438;-78
2022/05/30 10:39:15;;;;;;;1.97;1.60;;;;;;;;;;4957966;28;20427;-78
2022/05/30 10:41:47;;;;;;;1.90;1.77;;;;;;;;;;4973374;28;20540;-78
2022/05/30 10:44:18;;;;;;;1.77;1.67;;;;;;;;;;4975253;28;20909;-78
2022/05/30 10:46:52;;;;;;;2.03;1.83;;;;;;;;;;4964540;28;20453;-78
2022/05/30 10:49:22;;;;;;;2.40;2.00;;;;;;;;;;4942742;28;20492;-78
2022/05/30 10:51:52;;;;;;;3.70;1.57;;;;;;;;;;4952434;28;22253;-77
2022/05/30 10:54:22;;;;;;;3.30;2.13;;;;;;;;;;4932940;28;20465;-77
2022/05/30 10:57:06;;;;;;;2.57;1.77;;;;;;;;;;4936190;29;20463;-77
2022/05/30 10:59:35;;;;;;;2.33;2.13;;;;;;;;;;4929562;28;20949;-79
2022/05/30 11:02:06;;;;;;;2.23;1.80;;;;;;;;;;4954464;28;20463;-77
2022/05/30 11:04:41;;;;;;;3.10;2.13;;;;;;;;;;4936505;28;20491;-77
2022/05/30 11:07:15;;;;;;;2.60;2.00;;;;;;;;;;4929455;29;20478;-77
2022/05/30 11:09:46;;;;;;;2.07;1.87;;;;;;;;;;4929100;29;20461;-77
2022/05/30 11:12:20;;;;;;;2.10;1.57;;;;;;;;;;4932678;29;20547;-76
2022/05/30 11:14:51;;;;;;;2.47;2.00;;;;;;;;;;4935931;29;20435;-77
2022/05/30 11:17:39;;;;;;;3.20;2.20;;;;;;;;;;4926238;29;20783;-78
2022/05/30 11:20:31;;;;;;;2.87;1.93;;;;;;;;;;4925623;29;21023;-75
2022/05/30 11:22:59;;;;;;;1.97;1.77;;;;;;;;;;4925346;29;20456;-76
2022/05/30 11:25:31;;;;;;;3.00;1.70;;;;;;;;;;4926331;29;20459;-75
2022/05/30 11:28:03;;;;;;;2.37;2.17;;;;;;;;;;4927941;29;20483;-75
2022/05/30 11:30:36;;;;;;;1.63;1.37;;;;;;;;;;4918643;29;20440;-76
2022/05/30 11:33:28;;;;;;;3.13;2.00;;;;;;;;;;4937365;29;20441;-76
2022/05/30 11:36:00;;;;;;;2.23;1.83;;;;;;;;;;4927421;29;20456;-76
2022/05/30 11:38:36;;;;;;;4.90;2.50;;;;;;;;;;4927906;29;20532;-76
2022/05/30 11:41:12;;;;;;;2.90;1.57;;;;;;;;;;4929990;29;20478;-75
2022/05/30 11:43:46;;;;;;;3.90;2.10;;;;;;;;;;4926826;29;20452;-77
2022/05/30 11:46:19;;;;;;;2.53;1.93;;;;;;;;;;4931711;29;20474;-76
2022/05/30 11:48:49;;;;;;;2.00;1.73;;;;;;;;;;4933769;29;20507;-78
2022/05/30 11:51:20;;;;;;;2.70;2.00;;;;;;;;;;4921639;29;20859;-78
2022/05/30 11:53:56;;;;;;;3.13;1.83;;;;;;;;;;4934717;29;20578;-78
2022/05/30 11:56:26;;;;;;;2.53;2.10;;;;;;;;;;4928435;29;20463;-78
2022/05/30 11:59:02;;;;;;;2.30;1.87;;;;;;;;;;4936469;28;20831;-78
2022/05/30 12:01:30;;;;;;;2.20;1.90;;;;;;;;;;4932874;29;20479;-78
2022/05/30 12:04:14;;;;;;;1.93;1.77;;;;;;;;;;4927661;28;20536;-78
2022/05/30 12:06:46;;;;;;;13.60;2.53;;;;;;;;;;4949399;28;20489;-78
2022/05/30 12:09:25;;;;;;;2.10;1.90;;;;;;;;;;4950978;28;20481;-78
2022/05/30 12:12:05;;;;;;;4.40;1.70;;;;;;;;;;4963853;28;20602;-78
2022/05/30 12:14:52;;;;;;;1.97;1.87;;;;;;;;;;4964910;28;20536;-78
2022/05/30 12:17:27;;;;;;;2.13;1.80;;;;;;;;;;4963875;28;20438;-78
2022/05/30 12:25:44;;;;;;;2.20;1.80;;;;;;;;;;4953343;28;20450;-78
2022/05/30 12:28:26;;;;;;;1.60;1.50;;;;;;;;;;4974176;28;20532;-78
2022/05/30 12:30:58;;;;;;;3.20;2.00;;;;;;;;;;4972421;28;20538;-77
2022/05/30 12:33:46;;;;;;;2.43;2.10;;;;;;;;;;4975211;28;20461;-77
2022/05/30 12:36:36;;;;;;;1.70;1.60;;;;;;;;;;4972171;28;20870;-77
2022/05/30 12:39:11;;;;;;;2.13;1.83;;;;;;;;;;4935690;29;20434;-77
2022/05/30 12:41:38;;;;;;;2.37;1.80;;;;;;;;;;4938278;28;20457;-77
2022/05/30 12:44:05;;;;;;;1.97;1.77;;;;;;;;;;4971302;28;20446;-77
2022/05/30 12:46:48;;;;;;;2.07;1.80;;;;;;;;;;4934528;29;20864;-77
2022/05/30 12:49:18;;;;;;;2.13;1.93;;;;;;;;;;4968834;28;20463;-77
2022/05/30 12:52:05;;;;;;;3.80;1.90;;;;;;;;;;4952408;28;20951;-77
2022/05/30 12:54:44;;;;;;;2.90;1.97;;;;;;;;;;4970262;28;20522;-77
2022/05/30 12:57:29;;;;;;;2.23;2.03;;;;;;;;;;4958408;28;20545;-77
2022/05/30 13:00:14;;;;;;;2.17;1.60;;;;;;;;;;4970498;28;20454;-78
2022/05/30 13:02:45;;;;;;;2.03;1.83;;;;;;;;;;4967062;28;20451;-78
2022/05/30 13:05:22;;;;;;;2.43;1.70;;;;;;;;;;4954590;28;20490;-77
2022/05/30 13:07:48;;;;;;;2.07;1.87;;;;;;;;;;4966378;28;20561;-78
2022/05/30 13:10:15;;;;;;;5.10;2.27;;;;;;;;;;4963693;28;20597;-78
2022/05/30 13:12:53;;;;;;;2.87;2.07;;;;;;;;;;4931003;28;20908;-78
2022/05/30 13:15:26;;;;;;;2.30;2.07;;;;;;;;;;4968193;28;20483;-77
2022/05/30 13:17:57;;;;;;;2.40;2.03;;;;;;;;;;4947972;28;20530;-78
2022/05/30 13:20:28;;;;;;;2.40;2.13;;;;;;;;;;4965819;28;20502;-76
2022/05/30 13:22:55;;;;;;;2.77;1.93;;;;;;;;;;4954009;28;20458;-75
2022/05/30 13:25:23;;;;;;;3.03;2.07;;;;;;;;;;4965940;28;20779;-76
2022/05/30 13:27:50;;;;;;;2.07;1.90;;;;;;;;;;4964225;28;20462;-75
2022/05/30 13:30:20;;;;;;;2.17;1.93;;;;;;;;;;4962153;28;20553;-76
2022/05/30 13:32:46;;;;;;;1.90;1.77;;;;;;;;;;4942997;28;20804;-75
2022/05/30 13:35:14;;;;;;;2.10;1.90;;;;;;;;;;4947252;28;20462;-75
2022/05/30 13:37:44;;;;;;;2.50;2.30;;;;;;;;;;4966690;28;20457;-75
2022/05/30 13:40:13;;;;;;;2.23;2.03;;;;;;;;;;4943453;28;20458;-75
2022/05/30 13:42:48;;;;;;;1.97;1.73;;;;;;;;;;4963082;28;20831;-75
2022/05/30 13:45:14;;;;;;;2.20;1.93;;;;;;;;;;4964414;28;20498;-75
2022/05/30 13:47:41;;;;;;;2.60;2.40;;;;;;;;;;4942990;28;20451;-75
2022/05/30 13:50:08;;;;;;;2.90;2.53;;;;;;;;;;4947735;28;20477;-75
2022/05/30 13:52:36;;;;;;;2.67;2.30;;;;;;;;;;4960471;28;20430;-76
2022/05/30 13:55:06;;;;;;;3.20;2.03;;;;;;;;;;4948676;28;20443;-75
2022/05/30 13:57:32;;;;;;;5.30;2.53;;;;;;;;;;4965840;28;20443;-75
2022/05/30 14:00:00;;;;;;;2.43;2.07;;;;;;;;;;4947626;28;20434;-75
2022/05/30 14:02:28;;;;;;;2.80;2.23;;;;;;;;;;4962461;28;20632;-75
2022/05/30 14:04:56;;;;;;;2.70;2.50;;;;;;;;;;4966386;28;20564;-74
2022/05/30 14:07:24;;;;;;;3.10;2.03;;;;;;;;;;4946553;28;20482;-75
2022/05/30 14:09:52;;;;;;;3.70;2.70;;;;;;;;;;4963380;28;20490;-75
2022/05/30 14:12:21;;;;;;;2.20;2.00;;;;;;;;;;4967240;28;20809;-75
2022/05/30 14:14:49;;;;;;;2.40;2.20;;;;;;;;;;4965541;28;20860;-74
2022/05/30 14:17:25;;;;;;;2.87;2.43;;;;;;;;;;4963905;28;20481;-75
2022/05/30 14:20:02;;;;;;;3.13;2.07;;;;;;;;;;4965773;28;20438;-74
2022/05/30 14:22:28;;;;;;;3.70;2.20;;;;;;;;;;4936703;28;20469;-75
2022/05/30 14:24:59;;;;;;;2.77;2.30;;;;;;;;;;4948380;28;20454;-77
2022/05/30 14:27:28;;;;;;;2.90;2.10;;;;;;;;;;4967935;28;20531;-76
2022/05/30 14:29:58;;;;;;;3.70;1.87;;;;;;;;;;4964093;28;20514;-76
2022/05/30 14:32:27;;;;;;;2.00;1.80;;;;;;;;;;4966555;28;20996;-76
2022/05/30 14:35:03;;;;;;;2.13;1.93;;;;;;;;;;4954301;28;20462;-76
2022/05/30 14:37:30;;;;;;;3.97;2.40;;;;;;;;;;4949564;28;20454;-75
2022/05/30 14:40:00;;;;;;;2.47;2.27;;;;;;;;;;4948912;28;20498;-76
2022/05/30 14:42:33;;;;;;;3.23;2.37;;;;;;;;;;4967990;28;20504;-75
2022/05/30 14:45:04;;;;;;;2.53;2.33;;;;;;;;;;4946592;28;20870;-75
2022/05/30 14:47:32;;;;;;;2.50;2.13;;;;;;;;;;4953635;28;20784;-76
2022/05/30 14:50:01;;;;;;;2.50;2.30;;;;;;;;;;4972050;28;20474;-75
2022/05/30 14:52:32;;;;;;;3.07;2.37;;;;;;;;;;4963603;28;20442;-75
2022/05/30 14:55:03;;;;;;;2.80;2.50;;;;;;;;;;4956075;28;20464;-75
2022/05/30 14:57:31;;;;;;;2.30;2.10;;;;;;;;;;4963282;28;20446;-74
2022/05/30 14:59:57;;;;;;;2.80;2.07;;;;;;;;;;4951840;28;20972;-75
2022/05/30 15:05:10;;;;;;;1.70;1.60;;;;;;;;;;4963506;28;20489;-75
2022/05/30 15:07:39;;;;;;;3.43;2.70;;;;;;;;;;4947799;28;20541;-75
2022/05/30 15:10:05;;;;;;;2.20;2.00;;;;;;;;;;4961120;28;20470;-75
2022/05/30 15:12:33;;;;;;;1.93;1.80;;;;;;;;;;4966002;28;20447;-75
2022/05/30 15:15:00;;;;;;;2.30;2.10;;;;;;;;;;4952682;28;20486;-75
2022/05/30 15:17:26;;;;;;;2.37;2.17;;;;;;;;;;4969052;28;20488;-75
2022/05/30 15:19:53;;;;;;;3.87;2.37;;;;;;;;;;4954508;28;20467;-75
2022/05/30 15:22:21;;;;;;;2.87;2.40;;;;;;;;;;4969953;28;20486;-75
2022/05/30 15:24:49;;;;;;;2.17;1.97;;;;;;;;;;4953327;28;21131;-75
2022/05/30 15:27:17;;;;;;;2.63;2.43;;;;;;;;;;4973249;28;20536;-74
2022/05/30 15:29:45;;;;;;;2.60;2.33;;;;;;;;;;4969819;28;20470;-74
2022/05/30 15:32:15;;;;;;;3.17;2.60;;;;;;;;;;4954586;28;20545;-75
2022/05/30 15:34:42;;;;;;;2.23;2.00;;;;;;;;;;4962434;28;20470;-74
2022/05/30 15:37:08;;;;;;;2.67;2.10;;;;;;;;;;4956327;28;20442;-75
2022/05/30 15:39:36;;;;;;;2.50;2.30;;;;;;;;;;4953358;28;20446;-74
2022/05/30 15:42:05;;;;;;;2.90;2.33;;;;;;;;;;4969391;28;20808;-75
2022/05/30 15:44:32;;;;;;;2.63;2.20;;;;;;;;;;4971179;28;20484;-74
2022/05/30 15:47:00;;;;;;;2.60;2.40;;;;;;;;;;4973564;28;20803;-74
2022/05/30 15:49:28;;;;;;;3.00;2.00;;;;;;;;;;4969968;28;20469;-74